Time;durP1;ratioP1;P1;durP2;ratioP2;P2;SDS_P1;SDS_P2;PMS_P1;PMS_P2;Temp;Humidity;BMP_temperature;BMP_pressure;BME280_temperature;BME280_humidity;BME280_pressure;Samples;Min_cycle;Max_cycle;Signal;HPM_P1;HPM_P2
2021/11/04 00:04:26;;;;;;;2.80;2.13;;;17.60;71.50;;;;;;10344120;28;20030;-57
2021/11/04 00:09:28;;;;;;;3.28;2.15;;;17.70;71.40;;;;;;10378442;28;20025;-58
2021/11/04 00:14:28;;;;;;;3.80;2.10;;;17.80;71.20;;;;;;10339655;28;20026;-57
2021/11/04 00:19:29;;;;;;;3.28;2.20;;;17.80;71.70;;;;;;10337727;28;20035;-57
2021/11/04 00:24:30;;;;;;;2.83;1.90;;;17.70;71.00;;;;;;10337189;28;20035;-57
2021/11/04 00:29:31;;;;;;;2.83;1.83;;;17.70;71.70;;;;;;10337162;28;20443;-57
2021/11/04 00:34:32;;;;;;;3.63;2.67;;;17.70;71.10;;;;;;10337115;28;20121;-58
2021/11/04 00:39:32;;;;;;;4.10;2.13;;;17.70;70.90;;;;;;10337031;28;20090;-58
2021/11/04 00:44:33;;;;;;;4.03;2.03;;;17.70;71.00;;;;;;10336504;28;20443;-57
2021/11/04 00:49:34;;;;;;;4.05;2.13;;;17.70;71.10;;;;;;10336407;28;20390;-58
2021/11/04 00:54:38;;;;;;;3.38;2.30;;;17.70;70.90;;;;;;10336412;28;20037;-57
2021/11/04 00:59:39;;;;;;;3.25;2.00;;;17.80;71.50;;;;;;10336174;28;20065;-57
2021/11/04 01:04:39;;;;;;;3.22;2.28;;;17.70;71.10;;;;;;10356555;28;20034;-58
2021/11/04 01:09:40;;;;;;;3.92;3.05;;;17.70;71.10;;;;;;10339658;28;20027;-56
2021/11/04 01:14:41;;;;;;;2.90;1.92;;;17.70;70.80;;;;;;10351209;28;20052;-58
2021/11/04 01:19:42;;;;;;;3.10;2.13;;;17.70;70.80;;;;;;10335292;28;20529;-57
2021/11/04 01:24:43;;;;;;;4.03;2.47;;;17.70;70.90;;;;;;10333819;28;20034;-57
2021/11/04 01:29:43;;;;;;;3.53;2.20;;;17.70;70.90;;;;;;10334805;28;20101;-57
2021/11/04 01:34:44;;;;;;;3.92;2.60;;;17.70;70.70;;;;;;10346549;28;20045;-58
2021/11/04 01:39:45;;;;;;;3.58;2.15;;;17.70;70.70;;;;;;10334076;28;20065;-56
2021/11/04 01:44:46;;;;;;;3.72;2.33;;;17.70;70.80;;;;;;10334070;28;20129;-57
2021/11/04 01:49:47;;;;;;;3.75;2.47;;;17.70;70.80;;;;;;10334178;28;20065;-58
2021/11/04 01:54:48;;;;;;;3.05;2.35;;;17.70;70.70;;;;;;10334018;28;20026;-58
2021/11/04 01:59:48;;;;;;;3.38;2.55;;;17.70;70.60;;;;;;10332854;28;20109;-58
2021/11/04 02:04:59;;;;;;;3.20;2.40;;;17.80;70.20;;;;;;10342545;28;20444;-58
2021/11/04 02:10:13;;;;;;;3.67;2.38;;;17.90;70.10;;;;;;10371444;28;20033;-57
2021/11/04 02:15:15;;;;;;;4.47;2.53;;;17.80;70.20;;;;;;10361172;28;20064;-58
2021/11/04 02:20:29;;;;;;;3.35;2.28;;;17.70;70.30;;;;;;10356084;28;20033;-58
2021/11/04 02:25:32;;;;;;;3.15;2.40;;;17.70;70.40;;;;;;10351592;28;20061;-57
2021/11/04 02:30:34;;;;;;;3.92;2.40;;;17.80;70.30;;;;;;10373144;28;20101;-58
2021/11/04 02:35:36;;;;;;;3.78;2.20;;;17.70;70.30;;;;;;10373011;28;20134;-58
2021/11/04 02:40:37;;;;;;;3.30;2.50;;;17.70;70.40;;;;;;10355359;28;20026;-58
2021/11/04 02:45:38;;;;;;;3.42;2.40;;;17.70;70.40;;;;;;10372659;28;20104;-56
2021/11/04 02:50:38;;;;;;;3.22;2.30;;;17.70;70.20;;;;;;10371847;28;20064;-57
2021/11/04 02:55:39;;;;;;;3.90;2.33;;;17.70;70.30;;;;;;10371234;28;20622;-58
2021/11/04 03:00:45;;;;;;;3.00;2.03;;;17.70;70.40;;;;;;10372429;28;20076;-57
2021/11/04 03:05:46;;;;;;;3.55;2.50;;;17.70;70.90;;;;;;10371046;28;20040;-58
2021/11/04 03:10:47;;;;;;;3.78;2.42;;;17.70;70.20;;;;;;10363369;28;20022;-57
2021/11/04 03:15:55;;;;;;;3.88;2.30;;;17.70;70.20;;;;;;10331719;28;20022;-57
2021/11/04 03:20:57;;;;;;;3.47;2.77;;;17.70;70.40;;;;;;10330345;28;20030;-58
2021/11/04 03:26:00;;;;;;;3.83;2.05;;;17.70;70.30;;;;;;10339871;28;20026;-57
2021/11/04 03:31:02;;;;;;;3.78;2.53;;;17.70;70.10;;;;;;10333966;28;20062;-56
2021/11/04 03:36:04;;;;;;;3.97;2.55;;;17.80;69.90;;;;;;10331208;28;20062;-58
2021/11/04 03:41:07;;;;;;;3.47;2.28;;;17.90;69.70;;;;;;10357315;28;20168;-58
2021/11/04 03:46:08;;;;;;;3.05;2.20;;;17.90;69.70;;;;;;10370103;28;20057;-58
2021/11/04 03:51:10;;;;;;;3.00;2.20;;;17.80;69.80;;;;;;10370519;28;20021;-58
2021/11/04 03:56:12;;;;;;;4.80;2.70;;;17.80;69.90;;;;;;10369999;28;20045;-58
2021/11/04 04:01:13;;;;;;;3.58;2.55;;;17.80;69.80;;;;;;10374075;28;20490;-58
2021/11/04 04:06:14;;;;;;;3.38;2.50;;;17.80;69.90;;;;;;10377499;28;20049;-57
2021/11/04 04:11:15;;;;;;;3.42;2.40;;;17.70;69.80;;;;;;10366009;28;20116;-58
2021/11/04 04:16:15;;;;;;;3.30;2.25;;;17.80;69.90;;;;;;10337877;28;20386;-58
2021/11/04 04:21:17;;;;;;;3.47;2.40;;;17.80;69.90;;;;;;10337486;28;20105;-56
2021/11/04 04:26:18;;;;;;;3.25;2.50;;;17.80;69.90;;;;;;10350578;28;20027;-57
2021/11/04 04:31:18;;;;;;;3.85;2.78;;;17.70;69.80;;;;;;10335845;28;20098;-57
2021/11/04 04:36:19;;;;;;;4.03;2.78;;;17.70;69.80;;;;;;10336889;28;20026;-57
2021/11/04 04:41:20;;;;;;;4.45;3.00;;;17.70;69.80;;;;;;10336699;28;20065;-55
2021/11/04 04:46:21;;;;;;;3.53;2.20;;;17.80;69.90;;;;;;10336501;28;20027;-57
2021/11/04 04:51:22;;;;;;;3.63;2.55;;;17.80;69.80;;;;;;10336490;28;20431;-58
2021/11/04 04:56:23;;;;;;;3.70;2.92;;;17.70;69.80;;;;;;10335018;28;20030;-57
2021/11/04 05:01:23;;;;;;;3.17;2.40;;;17.70;69.80;;;;;;10336028;28;20105;-57
2021/11/04 05:06:24;;;;;;;3.30;2.60;;;17.80;69.80;;;;;;10356463;28;20138;-57
2021/11/04 05:11:25;;;;;;;3.08;2.15;;;17.80;69.80;;;;;;10361376;28;20030;-57
2021/11/04 05:16:25;;;;;;;3.20;2.33;;;17.70;69.80;;;;;;10348665;28;20058;-57
2021/11/04 05:21:26;;;;;;;3.90;2.38;;;17.80;69.80;;;;;;10335532;28;20034;-57
2021/11/04 05:26:27;;;;;;;2.97;2.47;;;17.80;69.50;;;;;;10335012;28;20554;-58
2021/11/04 05:31:27;;;;;;;3.00;2.28;;;17.80;70.00;;;;;;10335001;28;20154;-58
2021/11/04 05:36:28;;;;;;;3.55;2.70;;;17.80;69.40;;;;;;10334947;28;20035;-58
2021/11/04 05:41:29;;;;;;;3.55;2.40;;;17.80;69.40;;;;;;10334353;28;20031;-58
2021/11/04 05:46:29;;;;;;;2.75;2.25;;;17.90;69.00;;;;;;10332819;28;20038;-58
2021/11/04 05:51:30;;;;;;;3.20;1.98;;;18.10;68.60;;;;;;10334169;28;20035;-56
2021/11/04 05:56:31;;;;;;;3.50;2.03;;;18.20;68.20;;;;;;10332737;28;20054;-58
2021/11/04 06:01:32;;;;;;;5.07;2.58;;;18.20;68.50;;;;;;10332529;28;20038;-56
2021/11/04 06:06:33;;;;;;;6.68;2.88;;;18.40;68.30;;;;;;10368572;28;20030;-57
2021/11/04 06:11:33;;;;;;;4.13;2.30;;;18.30;68.70;;;;;;10358637;28;20022;-57
2021/11/04 06:16:34;;;;;;;3.85;1.92;;;18.50;68.90;;;;;;10333276;28;20061;-57
2021/11/04 06:21:35;;;;;;;5.22;2.42;;;18.50;68.90;;;;;;10332635;28;20054;-58
2021/11/04 06:26:36;;;;;;;4.30;2.35;;;18.60;69.10;;;;;;10332623;28;20034;-58
2021/11/04 06:31:36;;;;;;;7.55;2.47;;;18.60;69.20;;;;;;10332223;28;20096;-58
2021/11/04 06:36:37;;;;;;;4.47;2.42;;;18.60;68.80;;;;;;10332350;28;20065;-58
2021/11/04 06:41:38;;;;;;;6.10;2.80;;;18.60;69.20;;;;;;10330528;28;20028;-58
2021/11/04 06:46:42;;;;;;;5.93;2.40;;;18.80;68.00;;;;;;10343967;28;20038;-58
2021/11/04 06:51:47;;;;;;;7.70;2.95;;;18.80;68.00;;;;;;10366670;28;20034;-61
2021/11/04 06:56:48;;;;;;;7.72;2.88;;;18.80;67.70;;;;;;10371409;28;20026;-58
2021/11/04 07:01:59;;;;;;;11.52;3.67;;;18.80;67.50;;;;;;10372307;28;20066;-54
2021/11/04 07:07:09;;;;;;;11.05;3.05;;;18.90;67.00;;;;;;10371423;28;20057;-53
2021/11/04 07:12:12;;;;;;;7.15;3.00;;;18.80;67.00;;;;;;10348044;28;20038;-55
2021/11/04 07:17:14;;;;;;;8.90;2.13;;;18.80;67.10;;;;;;10329296;28;20026;-55
2021/11/04 07:22:33;;;;;;;10.65;2.63;;;18.80;67.20;;;;;;10326544;28;20475;-55
2021/11/04 07:27:58;;;;;;;8.60;2.58;;;18.70;67.00;;;;;;10327730;28;20054;-53
2021/11/04 07:33:04;;;;;;;5.60;2.63;;;18.80;67.10;;;;;;10335996;28;20118;-58
2021/11/04 07:38:13;;;;;;;7.20;2.70;;;18.70;67.30;;;;;;10372086;28;20026;-58
2021/11/04 07:43:13;;;;;;;6.72;2.22;;;18.70;67.10;;;;;;10336877;28;20066;-58
2021/11/04 07:48:14;;;;;;;7.40;2.92;;;18.80;66.90;;;;;;10337020;28;20153;-58
2021/11/04 07:53:15;;;;;;;5.80;2.28;;;18.80;66.70;;;;;;10337821;28;20044;-58
2021/11/04 07:58:15;;;;;;;4.18;2.63;;;18.80;66.70;;;;;;10336477;28;20054;-58
2021/11/04 08:03:16;;;;;;;5.50;2.38;;;18.80;66.90;;;;;;10334776;28;20042;-57
2021/11/04 08:08:17;;;;;;;4.07;2.55;;;18.80;66.50;;;;;;10360860;28;20034;-57
2021/11/04 08:13:18;;;;;;;4.28;2.50;;;18.80;66.50;;;;;;10353157;28;20053;-58
2021/11/04 08:18:19;;;;;;;5.68;2.20;;;18.80;66.80;;;;;;10337531;28;20034;-56
2021/11/04 08:23:19;;;;;;;4.57;2.20;;;18.80;66.50;;;;;;10337122;28;20030;-57
2021/11/04 08:28:20;;;;;;;5.60;1.95;;;18.80;66.60;;;;;;10337310;28;20101;-58
2021/11/04 08:33:21;;;;;;;4.72;2.08;;;18.70;66.80;;;;;;10336530;28;20068;-57
2021/11/04 08:38:22;;;;;;;7.07;2.50;;;18.70;66.70;;;;;;10336531;28;20549;-57
2021/11/04 08:43:23;;;;;;;3.17;2.08;;;18.70;66.80;;;;;;10334800;28;20125;-57
2021/11/04 08:48:24;;;;;;;5.03;2.67;;;18.60;67.20;;;;;;10334765;28;20027;-58
2021/11/04 08:53:25;;;;;;;5.35;2.17;;;18.50;67.40;;;;;;10335786;28;20490;-57
2021/11/04 08:58:26;;;;;;;3.95;2.60;;;18.60;67.10;;;;;;10335793;28;20035;-58
2021/11/04 09:03:27;;;;;;;4.25;2.20;;;18.70;67.00;;;;;;10335456;28;20023;-57
2021/11/04 09:08:27;;;;;;;4.47;1.80;;;18.60;67.10;;;;;;10360226;28;20026;-58
2021/11/04 09:13:28;;;;;;;4.43;1.80;;;18.60;67.00;;;;;;10352339;28;20437;-58
2021/11/04 09:18:29;;;;;;;2.67;1.90;;;18.60;66.90;;;;;;10333714;28;20081;-57
2021/11/04 09:23:30;;;;;;;3.13;2.20;;;18.60;67.20;;;;;;10334788;28;20073;-58
2021/11/04 09:28:30;;;;;;;2.63;1.88;;;18.40;67.50;;;;;;10334648;28;20382;-57
2021/11/04 09:33:31;;;;;;;4.85;2.65;;;18.50;67.30;;;;;;10334434;28;20030;-57
2021/11/04 09:38:32;;;;;;;3.92;2.10;;;18.60;66.90;;;;;;10334145;28;20049;-57
2021/11/04 09:43:33;;;;;;;3.20;2.25;;;18.60;66.90;;;;;;10333730;28;20084;-58
2021/11/04 09:48:37;;;;;;;2.65;1.85;;;18.60;67.20;;;;;;10332527;28;20037;-58
2021/11/04 09:53:37;;;;;;;2.72;1.77;;;18.50;67.10;;;;;;10334056;28;20038;-58
2021/11/04 09:58:38;;;;;;;3.22;2.10;;;18.60;67.10;;;;;;10331763;28;20497;-58
2021/11/04 10:03:39;;;;;;;2.67;1.75;;;18.50;67.10;;;;;;10332926;28;20072;-58
2021/11/04 10:08:40;;;;;;;4.78;1.83;;;18.50;67.20;;;;;;10373219;28;20108;-57
2021/11/04 10:13:42;;;;;;;3.30;2.47;;;18.50;66.90;;;;;;10340018;28;20057;-58
2021/11/04 10:18:46;;;;;;;3.45;2.38;;;18.50;67.00;;;;;;10331297;28;20073;-57
2021/11/04 10:23:48;;;;;;;2.95;2.28;;;18.40;67.40;;;;;;10331106;28;20034;-58
2021/11/04 10:29:24;;;;;;;2.90;1.95;;;18.40;67.40;;;;;;10332285;28;20033;-57
2021/11/04 10:34:35;;;;;;;3.33;2.15;;;18.50;67.10;;;;;;10299818;28;20042;-58
2021/11/04 10:39:42;;;;;;;3.70;2.65;;;18.40;67.30;;;;;;10331767;28;20375;-56
2021/11/04 10:44:43;;;;;;;3.17;2.25;;;18.30;67.50;;;;;;10331448;28;20046;-58
2021/11/04 10:49:51;;;;;;;3.50;2.40;;;18.20;67.90;;;;;;10331724;28;20672;-58
2021/11/04 10:54:53;;;;;;;4.67;2.53;;;18.30;67.90;;;;;;10314080;28;20034;-57
2021/11/04 10:59:53;;;;;;;3.10;2.45;;;18.30;67.50;;;;;;10330001;28;20026;-58
2021/11/04 11:04:54;;;;;;;3.15;2.55;;;18.50;67.20;;;;;;10339496;28;20057;-58
2021/11/04 11:09:55;;;;;;;3.88;2.60;;;18.60;66.90;;;;;;10334469;28;20026;-59
2021/11/04 11:14:56;;;;;;;3.95;2.28;;;18.50;66.90;;;;;;10345519;28;20336;-58
2021/11/04 11:19:58;;;;;;;2.38;1.80;;;18.50;67.10;;;;;;10329255;28;20129;-58
2021/11/04 11:24:59;;;;;;;3.55;2.58;;;18.50;66.90;;;;;;10329750;28;20533;-58
2021/11/04 11:30:00;;;;;;;3.25;2.50;;;18.50;66.80;;;;;;10329598;28;20038;-58
2021/11/04 11:35:10;;;;;;;3.60;2.83;;;18.50;67.00;;;;;;10329366;28;20052;-58
2021/11/04 11:40:15;;;;;;;4.43;2.67;;;18.50;67.00;;;;;;10330726;28;20839;-58
2021/11/04 11:45:15;;;;;;;4.28;2.50;;;18.50;67.10;;;;;;10330098;28;20046;-58
2021/11/04 11:50:21;;;;;;;3.20;2.20;;;18.40;67.30;;;;;;10330393;28;20450;-58
2021/11/04 11:55:35;;;;;;;3.63;2.60;;;18.40;67.40;;;;;;10330160;28;20034;-58
2021/11/04 12:00:59;;;;;;;3.85;2.60;;;18.50;67.10;;;;;;10329999;28;20054;-58
2021/11/04 12:06:02;;;;;;;3.13;2.58;;;18.40;67.10;;;;;;10348498;28;20041;-58
2021/11/04 12:11:07;;;;;;;3.10;2.28;;;18.40;67.10;;;;;;10359547;28;20026;-58
2021/11/04 12:16:17;;;;;;;2.92;2.15;;;18.50;67.00;;;;;;10329922;28;20552;-58
2021/11/04 12:21:21;;;;;;;5.40;3.05;;;18.40;67.10;;;;;;10332521;28;20034;-58
2021/11/04 12:26:47;;;;;;;3.40;2.80;;;18.40;67.00;;;;;;10337092;28;20026;-58
2021/11/04 12:31:49;;;;;;;3.05;2.42;;;18.50;66.90;;;;;;10334747;28;20034;-58
2021/11/04 12:36:54;;;;;;;3.60;2.50;;;18.40;67.10;;;;;;10336382;28;20026;-58
2021/11/04 12:41:58;;;;;;;3.13;2.28;;;18.50;66.90;;;;;;10336326;28;20038;-58
2021/11/04 12:47:01;;;;;;;3.15;2.42;;;18.50;67.00;;;;;;10336281;28;20483;-58
2021/11/04 12:52:08;;;;;;;3.38;2.45;;;18.40;67.10;;;;;;10335968;28;20030;-57
2021/11/04 12:57:17;;;;;;;3.53;2.88;;;18.50;66.90;;;;;;10335884;28;20033;-57
2021/11/04 13:02:31;;;;;;;3.00;2.35;;;18.40;67.00;;;;;;10334224;28;20124;-58
2021/11/04 13:07:38;;;;;;;3.65;3.00;;;18.40;67.20;;;;;;10366567;28;20036;-58
2021/11/04 13:12:42;;;;;;;3.72;2.63;;;18.50;67.20;;;;;;10351860;28;20026;-58
2021/11/04 13:17:59;;;;;;;4.25;3.22;;;18.50;66.90;;;;;;10334974;28;20576;-59
2021/11/04 13:23:11;;;;;;;6.70;3.35;;;18.40;67.00;;;;;;10334534;28;20031;-58
2021/11/04 13:28:20;;;;;;;3.20;2.47;;;18.40;67.30;;;;;;10333108;28;20045;-58
2021/11/04 13:33:31;;;;;;;3.08;2.40;;;18.30;67.60;;;;;;10332653;28;20426;-58
2021/11/04 13:38:32;;;;;;;3.15;2.60;;;18.20;67.80;;;;;;10333127;28;20042;-58
2021/11/04 13:43:38;;;;;;;3.78;2.80;;;18.20;67.70;;;;;;10332676;28;20042;-58
2021/11/04 13:48:44;;;;;;;3.53;2.67;;;18.40;67.40;;;;;;10333858;28;20088;-58
2021/11/04 13:53:45;;;;;;;3.83;2.75;;;18.40;67.10;;;;;;10333657;28;20062;-58
2021/11/04 13:58:46;;;;;;;3.70;2.80;;;18.40;67.10;;;;;;10333508;28;20065;-58
2021/11/04 14:04:08;;;;;;;4.03;2.88;;;18.30;67.40;;;;;;10332205;28;20336;-58
2021/11/04 14:09:09;;;;;;;3.70;3.00;;;18.20;67.70;;;;;;10373783;28;20033;-58
2021/11/04 14:14:11;;;;;;;2.58;2.17;;;18.20;67.70;;;;;;10337035;28;20030;-57
2021/11/04 14:19:13;;;;;;;3.50;2.63;;;18.30;67.40;;;;;;10332810;28;20057;-58
2021/11/04 14:24:14;;;;;;;3.05;2.50;;;18.30;67.40;;;;;;10330991;28;20045;-58
2021/11/04 14:29:15;;;;;;;3.38;2.75;;;18.30;67.60;;;;;;10332417;28;20421;-58
2021/11/04 14:34:17;;;;;;;3.42;2.85;;;18.30;67.60;;;;;;10330746;28;20471;-58
2021/11/04 14:39:18;;;;;;;3.63;2.72;;;18.30;67.50;;;;;;10331792;28;20042;-58
2021/11/04 14:44:19;;;;;;;3.75;2.95;;;18.30;67.60;;;;;;10331421;28;20521;-58
2021/11/04 14:49:20;;;;;;;3.40;2.85;;;18.30;67.50;;;;;;10332155;28;20109;-57
2021/11/04 14:54:21;;;;;;;2.90;2.50;;;18.40;67.10;;;;;;10331513;28;20535;-58
2021/11/04 14:59:23;;;;;;;3.00;2.63;;;18.40;67.10;;;;;;10331573;28;20034;-58
2021/11/04 15:04:24;;;;;;;3.63;2.95;;;18.40;67.10;;;;;;10336736;28;20470;-58
2021/11/04 15:09:24;;;;;;;4.07;3.00;;;18.30;67.20;;;;;;10371780;28;20120;-58
2021/11/04 15:14:25;;;;;;;3.00;2.58;;;18.30;67.30;;;;;;10331893;28;20118;-58
2021/11/04 15:19:26;;;;;;;3.33;2.75;;;18.40;67.20;;;;;;10329733;28;20033;-58
2021/11/04 15:24:27;;;;;;;2.78;2.38;;;18.40;67.10;;;;;;10330991;28;20073;-58
2021/11/04 15:29:28;;;;;;;3.83;2.97;;;18.50;66.80;;;;;;10330856;28;20125;-56
2021/11/04 15:34:28;;;;;;;4.22;2.65;;;18.50;66.60;;;;;;10365590;28;20037;-58
2021/11/04 15:39:31;;;;;;;3.13;2.50;;;18.50;66.80;;;;;;10358709;28;20105;-57
2021/11/04 15:44:33;;;;;;;4.32;2.67;;;18.50;67.00;;;;;;10352395;28;20045;-58
2021/11/04 15:49:35;;;;;;;2.75;2.40;;;18.40;67.20;;;;;;10353432;28;20026;-59
2021/11/04 15:54:36;;;;;;;2.85;2.33;;;18.50;67.00;;;;;;10354659;28;20383;-58
2021/11/04 15:59:37;;;;;;;3.05;2.40;;;18.50;67.10;;;;;;10362131;28;20064;-58
2021/11/04 16:04:38;;;;;;;3.67;2.58;;;18.40;67.30;;;;;;10374816;28;20109;-58
2021/11/04 16:09:38;;;;;;;3.85;2.88;;;18.40;67.10;;;;;;10357517;28;20061;-56
2021/11/04 16:14:39;;;;;;;2.75;2.30;;;18.40;67.10;;;;;;10361523;28;20136;-58
2021/11/04 16:19:41;;;;;;;4.13;2.85;;;18.30;67.40;;;;;;10390401;28;20065;-58
2021/11/04 16:24:42;;;;;;;3.35;2.53;;;18.30;67.10;;;;;;10359084;28;20032;-57
2021/11/04 16:29:43;;;;;;;5.07;2.47;;;18.40;66.80;;;;;;10370071;28;20026;-57
2021/11/04 16:34:43;;;;;;;4.40;2.53;;;18.60;66.90;;;;;;10376269;28;20072;-58
2021/11/04 16:39:44;;;;;;;3.55;2.42;;;18.60;66.80;;;;;;10373666;28;20125;-57
2021/11/04 16:44:45;;;;;;;3.85;2.67;;;18.60;66.90;;;;;;10375275;28;20046;-56
2021/11/04 16:49:46;;;;;;;5.22;3.20;;;18.50;66.80;;;;;;10375449;28;20028;-58
2021/11/04 16:54:47;;;;;;;6.57;2.95;;;18.50;66.90;;;;;;10365085;28;20022;-56
2021/11/04 16:59:47;;;;;;;8.25;3.40;;;18.40;67.20;;;;;;10373851;28;20033;-58
2021/11/04 17:04:48;;;;;;;5.90;3.13;;;18.40;67.20;;;;;;10370685;28;20029;-57
2021/11/04 17:09:49;;;;;;;7.30;3.15;;;18.40;67.20;;;;;;10366173;28;20060;-58
2021/11/04 17:14:51;;;;;;;4.70;3.33;;;18.70;67.90;;;;;;10361801;28;20032;-58
2021/11/04 17:19:53;;;;;;;6.55;3.50;;;18.80;68.00;;;;;;10358417;28;20092;-57
2021/11/04 17:24:53;;;;;;;7.72;3.20;;;18.80;68.50;;;;;;10348319;28;20041;-57
2021/11/04 17:29:54;;;;;;;14.23;3.80;;;18.60;68.80;;;;;;10352645;28;20026;-59
2021/11/04 17:34:55;;;;;;;7.50;3.47;;;18.50;69.10;;;;;;10360342;28;20026;-58
2021/11/04 17:39:55;;;;;;;7.65;3.55;;;18.60;68.30;;;;;;10357431;28;20501;-58
2021/11/04 17:44:57;;;;;;;8.15;3.42;;;18.50;68.50;;;;;;10350879;28;20125;-59
2021/11/04 17:49:58;;;;;;;6.43;4.18;;;18.50;69.00;;;;;;10361532;28;20033;-59
2021/11/04 17:54:59;;;;;;;12.90;4.05;;;18.40;68.90;;;;;;10347296;28;20034;-59
2021/11/04 18:00:00;;;;;;;9.00;3.50;;;18.30;69.10;;;;;;10364845;28;20125;-59
2021/11/04 18:05:00;;;;;;;7.25;3.13;;;18.20;69.10;;;;;;10359243;28;20118;-59
2021/11/04 18:10:04;;;;;;;6.15;3.25;;;18.20;69.40;;;;;;10347331;28;20113;-59
2021/11/04 18:15:06;;;;;;;9.45;3.75;;;18.10;69.40;;;;;;10358008;28;20101;-58
2021/11/04 18:20:09;;;;;;;8.80;3.35;;;18.20;69.40;;;;;;10341015;28;20026;-59
2021/11/04 18:25:10;;;;;;;8.80;3.17;;;18.20;69.20;;;;;;10357199;28;20030;-59
2021/11/04 18:30:11;;;;;;;8.07;3.30;;;18.30;69.00;;;;;;10360328;28;20026;-57
2021/11/04 18:35:12;;;;;;;4.32;2.70;;;18.30;68.50;;;;;;10350297;28;20168;-59
2021/11/04 18:40:13;;;;;;;5.63;2.88;;;18.40;68.40;;;;;;10341064;28;20030;-58
2021/11/04 18:45:14;;;;;;;7.38;3.50;;;18.50;68.10;;;;;;10358895;28;20069;-59
2021/11/04 18:50:15;;;;;;;7.68;3.67;;;18.40;68.10;;;;;;10344876;28;20038;-59
2021/11/04 18:55:17;;;;;;;8.80;3.50;;;18.40;68.20;;;;;;10340247;28;20037;-59
2021/11/04 19:00:20;;;;;;;5.60;2.53;;;18.40;68.40;;;;;;10349687;28;20109;-59
2021/11/04 19:05:22;;;;;;;4.97;3.13;;;18.40;68.20;;;;;;10367938;28;20467;-58
2021/11/04 19:10:23;;;;;;;4.50;2.78;;;18.40;68.20;;;;;;10366910;28;20027;-59
2021/11/04 19:15:27;;;;;;;5.10;2.70;;;18.30;68.30;;;;;;10357667;28;20040;-59
2021/11/04 19:20:28;;;;;;;5.22;3.38;;;18.40;68.20;;;;;;10373521;28;20030;-59
2021/11/04 19:25:28;;;;;;;6.88;3.00;;;18.40;68.20;;;;;;10370872;28;20038;-59
2021/11/04 19:30:32;;;;;;;3.92;2.63;;;18.40;68.30;;;;;;10371664;28;20040;-59
2021/11/04 19:35:33;;;;;;;5.25;2.95;;;18.40;68.20;;;;;;10376848;28;20076;-58
2021/11/04 19:40:34;;;;;;;7.05;3.30;;;18.40;68.10;;;;;;10359799;28;20061;-59
2021/11/04 19:45:35;;;;;;;3.05;2.60;;;18.40;68.30;;;;;;10364559;28;20165;-57
2021/11/04 19:50:36;;;;;;;4.53;3.05;;;18.40;68.60;;;;;;10376367;28;20033;-59
2021/11/04 19:55:37;;;;;;;5.10;2.95;;;18.40;68.50;;;;;;10377283;28;20086;-59
2021/11/04 20:00:38;;;;;;;5.40;2.65;;;18.40;68.50;;;;;;10374988;28;20535;-59
2021/11/04 20:05:40;;;;;;;7.03;3.85;;;18.40;68.80;;;;;;10372707;28;20060;-59
2021/11/04 20:10:40;;;;;;;5.43;3.45;;;18.40;68.90;;;;;;10372234;28;20474;-59
2021/11/04 20:15:41;;;;;;;5.53;3.83;;;18.40;69.00;;;;;;10370753;28;20041;-59
2021/11/04 20:20:42;;;;;;;8.02;4.30;;;18.30;69.30;;;;;;10369151;28;20034;-58
2021/11/04 20:25:43;;;;;;;7.60;3.60;;;18.20;69.40;;;;;;10344229;28;20063;-58
2021/11/04 20:30:44;;;;;;;5.28;3.92;;;18.20;69.90;;;;;;10366424;28;20363;-58
2021/11/04 20:35:45;;;;;;;5.38;3.80;;;18.10;70.00;;;;;;10377617;28;20401;-58
2021/11/04 20:40:46;;;;;;;5.93;3.80;;;18.00;70.30;;;;;;10374393;28;20104;-58
2021/11/04 20:45:47;;;;;;;5.07;4.00;;;17.90;70.40;;;;;;10376375;28;20046;-59
2021/11/04 20:50:48;;;;;;;7.50;3.58;;;17.80;70.50;;;;;;10374267;28;20033;-59
2021/11/04 20:55:48;;;;;;;5.13;3.95;;;17.80;70.50;;;;;;10373208;28;20065;-59
2021/11/04 21:00:49;;;;;;;6.90;3.95;;;17.80;70.50;;;;;;10372997;28;20088;-59
2021/11/04 21:05:52;;;;;;;4.68;3.55;;;17.70;70.50;;;;;;10373497;28;20030;-59
2021/11/04 21:10:53;;;;;;;5.75;3.58;;;17.70;70.60;;;;;;10374452;28;20080;-58
2021/11/04 21:15:53;;;;;;;5.30;3.17;;;17.70;70.60;;;;;;10369621;28;20402;-59
2021/11/04 21:20:57;;;;;;;4.18;3.33;;;17.60;70.60;;;;;;10344583;28;20038;-59
2021/11/04 21:25:58;;;;;;;4.18;3.30;;;17.60;70.60;;;;;;10361529;28;20034;-59
2021/11/04 21:30:59;;;;;;;4.50;3.67;;;17.50;70.50;;;;;;10375534;28;20446;-59
2021/11/04 21:35:59;;;;;;;5.15;3.75;;;17.50;70.60;;;;;;10375450;28;20048;-59
2021/11/04 21:41:01;;;;;;;4.95;3.38;;;17.40;70.50;;;;;;10374995;28;20033;-59
2021/11/04 21:46:03;;;;;;;5.05;3.05;;;17.40;70.60;;;;;;10373776;28;20422;-58
2021/11/04 21:51:06;;;;;;;4.30;3.15;;;17.40;70.60;;;;;;10371466;28;20029;-59
2021/11/04 21:56:07;;;;;;;4.45;3.13;;;17.40;70.70;;;;;;10332562;28;20089;-59
2021/11/04 22:01:11;;;;;;;4.00;2.90;;;17.40;70.40;;;;;;10326635;28;20524;-59
2021/11/04 22:06:13;;;;;;;4.07;2.90;;;17.50;70.40;;;;;;10351429;28;20579;-59
2021/11/04 22:11:14;;;;;;;4.90;2.70;;;17.50;70.30;;;;;;10368799;28;20037;-59
2021/11/04 22:16:15;;;;;;;5.03;3.20;;;17.40;70.20;;;;;;10374250;28;20057;-58
2021/11/04 22:21:17;;;;;;;3.97;2.97;;;17.50;70.20;;;;;;10373718;28;20040;-58
2021/11/04 22:26:24;;;;;;;3.78;2.85;;;17.50;69.80;;;;;;10372376;28;20030;-59
2021/11/04 22:31:41;;;;;;;4.05;3.10;;;17.60;69.70;;;;;;10373253;28;20041;-58
2021/11/04 22:36:44;;;;;;;3.75;2.60;;;17.60;69.60;;;;;;10372398;28;20053;-59
2021/11/04 22:41:48;;;;;;;4.63;2.75;;;17.60;70.10;;;;;;10353730;28;20498;-59
2021/11/04 22:46:49;;;;;;;5.00;3.03;;;17.60;69.50;;;;;;10365540;28;20060;-58
2021/11/04 22:51:50;;;;;;;4.03;3.00;;;17.60;69.40;;;;;;10371498;28;20073;-59
2021/11/04 22:56:51;;;;;;;3.67;2.55;;;17.60;69.20;;;;;;10372761;28;20530;-59
2021/11/04 23:01:52;;;;;;;4.00;2.63;;;17.70;69.20;;;;;;10371229;28;20167;-58
2021/11/04 23:06:53;;;;;;;3.70;2.67;;;17.70;69.00;;;;;;10372186;28;20092;-59
2021/11/04 23:11:54;;;;;;;3.83;2.80;;;17.80;68.80;;;;;;10371862;28;20073;-59
2021/11/04 23:16:55;;;;;;;3.20;2.42;;;17.70;68.80;;;;;;10330602;28;20030;-59
2021/11/04 23:21:56;;;;;;;2.67;2.10;;;17.70;68.90;;;;;;10336832;28;20053;-59
2021/11/04 23:26:57;;;;;;;4.20;2.40;;;17.70;69.00;;;;;;10337994;28;20093;-59
2021/11/04 23:31:58;;;;;;;3.33;2.60;;;17.70;68.90;;;;;;10347852;28;20081;-59
2021/11/04 23:36:59;;;;;;;3.42;2.30;;;17.70;68.90;;;;;;10336312;28;20097;-59
2021/11/04 23:41:59;;;;;;;3.22;2.38;;;17.60;68.80;;;;;;10347988;28;20065;-59
2021/11/04 23:47:00;;;;;;;3.33;2.50;;;17.70;68.80;;;;;;10370488;28;20037;-59
2021/11/04 23:52:02;;;;;;;4.15;2.67;;;17.70;68.70;;;;;;10371489;28;20034;-59
2021/11/04 23:57:03;;;;;;;3.83;2.65;;;17.70;68.50;;;;;;10358230;28;20129;-58
